createdAt,value
2022-07-27T00:00:18.433Z,81.93
2022-07-27T00:01:21.976Z,81.34
2022-07-27T00:02:24.226Z,81.46
2022-07-27T00:03:27.306Z,81.24
2022-07-27T00:04:30.420Z,81.82
2022-07-27T00:05:32.446Z,81.29
2022-07-27T00:06:36.171Z,81.76
2022-07-27T00:07:38.269Z,81.33
2022-07-27T00:08:43.125Z,81.57
2022-07-27T00:09:45.897Z,81.07
2022-07-27T00:10:49.938Z,81.60
2022-07-27T00:11:53.259Z,81.19
2022-07-27T00:12:55.436Z,81.53
2022-07-27T00:14:00.180Z,81.10
2022-07-27T00:15:02.509Z,81.17
2022-07-27T00:16:06.722Z,81.50
2022-07-27T00:17:11.766Z,81.06
2022-07-27T00:18:14.209Z,80.70
2022-07-27T00:19:17.546Z,80.97
2022-07-27T00:20:20.050Z,80.60
2022-07-27T00:21:30.169Z,80.56
2022-07-27T00:22:32.397Z,80.77
2022-07-27T00:23:36.225Z,80.51
2022-07-27T00:24:38.244Z,80.31
2022-07-27T00:25:41.282Z,80.29
2022-07-27T00:26:43.836Z,80.23
2022-07-27T00:27:47.064Z,80.29
2022-07-27T00:28:50.006Z,79.86
2022-07-27T00:29:54.589Z,79.94
2022-07-27T00:30:57.150Z,79.94
2022-07-27T00:32:00.738Z,80.12
2022-07-27T00:33:03.770Z,79.81
2022-07-27T00:34:06.834Z,79.95
2022-07-27T00:35:09.914Z,80.11
2022-07-27T00:36:13.516Z,79.99
2022-07-27T00:37:15.786Z,79.86
2022-07-27T00:38:18.807Z,79.90
2022-07-27T00:39:20.908Z,79.59
2022-07-27T00:40:23.981Z,79.83
2022-07-27T00:41:26.032Z,79.42
2022-07-27T00:42:29.934Z,79.55
2022-07-27T00:43:32.067Z,79.48
2022-07-27T00:44:35.626Z,79.09
2022-07-27T00:45:39.233Z,79.29
2022-07-27T00:46:42.283Z,79.13
2022-07-27T00:47:44.787Z,79.46
2022-07-27T00:48:47.927Z,79.22
2022-07-27T00:49:50.175Z,79.28
2022-07-27T00:50:56.350Z,79.33
2022-07-27T00:51:59.506Z,79.18
2022-07-27T00:53:04.893Z,79.35
2022-07-27T00:54:07.998Z,79.41
2022-07-27T00:55:10.304Z,78.95
2022-07-27T00:56:14.117Z,78.99
2022-07-27T00:57:16.960Z,78.77
2022-07-27T00:58:20.281Z,79.21
2022-07-27T00:59:23.032Z,78.72
2022-07-27T01:00:26.598Z,78.73
2022-07-27T01:01:30.971Z,78.83
2022-07-27T01:02:34.586Z,79.01
2022-07-27T01:03:39.852Z,79.12
2022-07-27T01:04:43.353Z,78.73
2022-07-27T01:05:49.926Z,78.84
2022-07-27T01:06:53.567Z,78.98
2022-07-27T01:07:56.091Z,78.59
2022-07-27T01:09:14.241Z,78.85
2022-07-27T01:10:18.500Z,78.88
2022-07-27T01:11:20.725Z,78.61
2022-07-27T01:12:24.743Z,78.37
2022-07-27T01:13:27.891Z,78.06
2022-07-27T01:14:30.204Z,78.54
2022-07-27T01:15:35.404Z,78.32
2022-07-27T01:16:41.701Z,78.02
2022-07-27T01:17:44.877Z,78.27
2022-07-27T01:18:47.931Z,78.22
2022-07-27T01:19:50.064Z,78.29
2022-07-27T01:20:53.149Z,78.22
2022-07-27T01:21:56.588Z,77.97
2022-07-27T01:22:59.804Z,77.89
2022-07-27T01:24:02.236Z,77.68
2022-07-27T01:25:05.939Z,77.96
2022-07-27T01:26:08.023Z,77.58
2022-07-27T01:27:11.138Z,77.77
2022-07-27T01:28:14.345Z,77.73
2022-07-27T01:29:16.412Z,77.55
2022-07-27T01:30:30.376Z,78.10
2022-07-27T01:31:32.740Z,77.91
2022-07-27T01:32:35.737Z,78.00
2022-07-27T01:33:38.798Z,77.99
2022-07-27T01:34:40.894Z,77.95
2022-07-27T01:35:44.029Z,77.59
2022-07-27T01:36:46.197Z,77.68
2022-07-27T01:37:50.565Z,77.31
2022-07-27T01:38:52.650Z,77.49
2022-07-27T01:39:55.694Z,77.55
2022-07-27T01:40:58.010Z,77.55
2022-07-27T01:42:02.429Z,77.56
2022-07-27T01:43:05.288Z,77.45
2022-07-27T01:44:08.399Z,77.64
2022-07-27T01:45:10.567Z,77.75
2022-07-27T01:46:13.837Z,77.68
2022-07-27T01:47:15.995Z,77.49
2022-07-27T01:48:19.026Z,77.66
2022-07-27T01:49:21.346Z,77.95
2022-07-27T01:50:24.604Z,77.65
2022-07-27T01:51:26.659Z,77.80
2022-07-27T01:52:29.765Z,77.72
2022-07-27T01:53:33.247Z,77.97
2022-07-27T01:54:36.294Z,77.82
2022-07-27T01:55:39.142Z,77.85
2022-07-27T01:56:42.839Z,77.89
2022-07-27T01:57:44.883Z,77.83
2022-07-27T01:58:48.093Z,78.22
2022-07-27T01:59:50.206Z,78.18
2022-07-27T02:00:53.971Z,78.21
2022-07-27T02:01:56.508Z,78.32
2022-07-27T02:02:59.688Z,78.10
2022-07-27T02:04:01.778Z,78.28
2022-07-27T02:05:05.752Z,78.59
2022-07-27T02:06:07.840Z,78.50
2022-07-27T02:07:12.341Z,78.46
2022-07-27T02:08:14.528Z,78.94
2022-07-27T02:09:20.143Z,78.72
2022-07-27T02:10:22.991Z,79.27
2022-07-27T02:11:43.662Z,79.05
2022-07-27T02:12:45.656Z,79.27
2022-07-27T02:13:49.845Z,79.46
2022-07-27T02:14:52.138Z,79.56
2022-07-27T02:15:58.029Z,79.45
2022-07-27T02:17:00.409Z,79.55
2022-07-27T02:18:03.464Z,79.73
2022-07-27T02:19:25.463Z,80.05
2022-07-27T02:20:31.002Z,80.22
2022-07-27T02:21:33.420Z,80.32
2022-07-27T02:22:36.970Z,80.41
2022-07-27T02:23:40.399Z,80.46
2022-07-27T02:24:44.811Z,80.46
2022-07-27T02:25:46.865Z,80.51
2022-07-27T02:26:49.865Z,80.49
2022-07-27T02:27:51.890Z,80.41
2022-07-27T02:28:54.859Z,80.88
2022-07-27T02:29:58.053Z,80.98
2022-07-27T02:31:01.138Z,81.02
2022-07-27T02:32:03.480Z,80.76
2022-07-27T02:33:06.785Z,80.62
2022-07-27T02:34:08.808Z,81.10
2022-07-27T02:35:19.653Z,80.59
2022-07-27T02:36:23.335Z,80.95
2022-07-27T02:37:25.439Z,80.75
2022-07-27T02:38:28.560Z,80.70
2022-07-27T02:39:30.644Z,80.84
2022-07-27T02:40:35.240Z,80.73
2022-07-27T02:41:37.237Z,80.40
2022-07-27T02:42:40.254Z,80.52
2022-07-27T02:43:42.253Z,80.76
2022-07-27T02:44:45.666Z,80.48
2022-07-27T02:45:48.474Z,80.48
2022-07-27T02:46:52.055Z,80.54
2022-07-27T02:47:54.248Z,80.38
2022-07-27T02:48:57.445Z,80.62
2022-07-27T02:49:59.518Z,80.52
2022-07-27T02:51:02.918Z,80.62
2022-07-27T02:52:05.986Z,80.65
2022-07-27T02:53:08.995Z,80.52
2022-07-27T02:54:10.978Z,80.25
2022-07-27T02:55:14.175Z,80.47
2022-07-27T02:56:18.562Z,80.57
2022-07-27T02:57:20.993Z,80.41
2022-07-27T02:58:24.368Z,80.26
2022-07-27T02:59:26.554Z,80.36
2022-07-27T03:00:29.713Z,80.08
2022-07-27T03:01:31.906Z,79.94
2022-07-27T03:02:34.920Z,80.33
2022-07-27T03:03:38.955Z,79.91
2022-07-27T03:04:41.065Z,79.77
2022-07-27T03:05:44.161Z,80.08
2022-07-27T03:06:46.265Z,80.35
2022-07-27T03:07:49.622Z,80.23
2022-07-27T03:08:51.780Z,79.74
2022-07-27T03:09:54.842Z,80.00
2022-07-27T03:10:56.967Z,79.91
2022-07-27T03:12:01.434Z,79.68
2022-07-27T03:13:03.640Z,79.75
2022-07-27T03:14:06.815Z,80.05
2022-07-27T03:15:10.221Z,79.68
2022-07-27T03:16:13.314Z,79.92
2022-07-27T03:17:15.785Z,79.92
2022-07-27T03:18:19.009Z,79.89
2022-07-27T03:19:21.546Z,79.64
2022-07-27T03:20:25.045Z,79.83
2022-07-27T03:21:27.068Z,80.10
2022-07-27T03:22:32.558Z,79.91
2022-07-27T03:23:35.607Z,79.82
2022-07-27T03:24:37.687Z,80.09
2022-07-27T03:25:40.964Z,80.05
2022-07-27T03:26:43.028Z,80.20
2022-07-27T03:27:47.537Z,79.74
2022-07-27T03:28:49.566Z,79.77
2022-07-27T03:29:52.622Z,79.85
2022-07-27T03:30:54.715Z,80.31
2022-07-27T03:31:57.819Z,79.98
2022-07-27T03:32:59.892Z,80.28
2022-07-27T03:34:02.888Z,80.00
2022-07-27T03:35:05.951Z,80.65
2022-07-27T03:36:09.154Z,80.58
2022-07-27T03:37:11.258Z,80.16
2022-07-27T03:38:14.298Z,80.67
2022-07-27T03:39:16.972Z,80.53
2022-07-27T03:40:20.172Z,80.67
2022-07-27T03:41:22.275Z,80.67
2022-07-27T03:42:25.247Z,80.83
2022-07-27T03:43:29.434Z,80.78
2022-07-27T03:44:33.492Z,80.83
2022-07-27T03:45:36.012Z,80.89
2022-07-27T03:46:39.219Z,81.01
2022-07-27T03:47:41.254Z,81.25
2022-07-27T03:48:44.302Z,81.35
2022-07-27T03:49:47.730Z,81.52
2022-07-27T03:50:49.802Z,81.39
2022-07-27T03:51:52.859Z,81.41
2022-07-27T03:52:54.891Z,81.40
2022-07-27T03:53:58.786Z,81.61
2022-07-27T03:55:00.794Z,81.68
2022-07-27T03:56:03.887Z,81.28
2022-07-27T03:57:06.030Z,81.68
2022-07-27T03:58:09.087Z,81.31
2022-07-27T03:59:12.997Z,81.58
2022-07-27T04:00:17.548Z,81.43
2022-07-27T04:01:19.917Z,81.35
2022-07-27T04:02:23.044Z,81.39
2022-07-27T04:03:25.591Z,81.79
2022-07-27T04:04:28.860Z,81.47
2022-07-27T04:05:32.036Z,81.85
2022-07-27T04:06:34.268Z,81.95
2022-07-27T04:07:37.863Z,81.79
2022-07-27T04:08:39.935Z,82.14
2022-07-27T04:09:42.982Z,82.17
2022-07-27T04:10:48.254Z,81.85
2022-07-27T04:11:51.618Z,82.12
2022-07-27T04:12:53.945Z,82.31
2022-07-27T04:13:57.413Z,82.18
2022-07-27T04:15:00.964Z,82.42
2022-07-27T04:16:04.802Z,82.25
2022-07-27T04:17:06.903Z,82.12
2022-07-27T04:18:09.985Z,82.34
2022-07-27T04:19:12.361Z,82.28
2022-07-27T04:20:15.962Z,82.24
2022-07-27T04:21:17.991Z,82.26
2022-07-27T04:22:20.956Z,82.86
2022-07-27T04:23:23.098Z,82.34
2022-07-27T04:24:26.290Z,82.64
2022-07-27T04:25:28.523Z,82.30
2022-07-27T04:26:31.902Z,82.71
2022-07-27T04:27:34.010Z,82.63
2022-07-27T04:28:37.125Z,82.10
2022-07-27T04:29:39.213Z,82.71
2022-07-27T04:30:43.689Z,82.43
2022-07-27T04:31:45.844Z,82.16
2022-07-27T04:32:49.043Z,82.46
2022-07-27T04:33:51.261Z,82.17
2022-07-27T04:34:54.264Z,82.14
2022-07-27T04:35:56.302Z,82.47
2022-07-27T04:36:59.454Z,82.20
2022-07-27T04:38:01.531Z,82.12
2022-07-27T04:39:04.969Z,82.10
2022-07-27T04:40:08.511Z,82.07
2022-07-27T04:41:11.664Z,82.00
2022-07-27T04:42:13.682Z,82.48
2022-07-27T04:43:16.696Z,82.29
2022-07-27T04:44:20.402Z,82.35
2022-07-27T04:45:23.667Z,82.24
2022-07-27T04:46:28.316Z,82.24
2022-07-27T04:47:30.628Z,82.09
2022-07-27T04:48:34.178Z,81.69
2022-07-27T04:49:36.215Z,82.04
2022-07-27T04:50:42.552Z,81.70
2022-07-27T04:51:46.013Z,81.54
2022-07-27T04:52:48.542Z,81.71
2022-07-27T04:53:53.642Z,81.66
2022-07-27T04:55:00.599Z,81.11
2022-07-27T04:56:04.864Z,81.29
2022-07-27T04:57:07.138Z,80.82
2022-07-27T04:58:10.458Z,80.75
2022-07-27T04:59:13.022Z,80.94
2022-07-27T05:00:16.961Z,81.10
2022-07-27T05:01:19.174Z,81.07
2022-07-27T05:02:24.096Z,80.68
2022-07-27T05:03:26.195Z,80.39
2022-07-27T05:04:29.533Z,80.45
2022-07-27T05:05:32.869Z,80.72
2022-07-27T05:06:35.944Z,80.65
2022-07-27T05:07:38.048Z,80.18
2022-07-27T05:08:41.061Z,80.32
2022-07-27T05:09:43.436Z,80.10
2022-07-27T05:10:46.642Z,80.35
2022-07-27T05:11:51.106Z,80.09
2022-07-27T05:12:55.254Z,79.86
2022-07-27T05:13:57.303Z,79.74
2022-07-27T05:15:00.312Z,79.63
2022-07-27T05:16:03.417Z,79.73
2022-07-27T05:17:06.283Z,79.49
2022-07-27T05:18:10.920Z,79.20
2022-07-27T05:19:13.256Z,79.28
2022-07-27T05:20:17.128Z,79.34
2022-07-27T05:21:19.317Z,79.45
2022-07-27T05:22:22.477Z,79.12
2022-07-27T05:23:24.523Z,79.06
2022-07-27T05:24:27.807Z,78.93
2022-07-27T05:25:29.900Z,78.54
2022-07-27T05:26:33.016Z,78.34
2022-07-27T05:27:37.181Z,78.29
2022-07-27T05:28:56.906Z,78.21
2022-07-27T05:29:59.878Z,78.42
2022-07-27T05:31:02.662Z,78.42
2022-07-27T05:32:06.538Z,78.05
2022-07-27T05:33:11.698Z,77.95
2022-07-27T05:34:14.761Z,78.07
2022-07-27T05:35:16.833Z,78.11
2022-07-27T05:36:19.923Z,78.12
2022-07-27T05:37:21.992Z,77.62
2022-07-27T05:38:25.051Z,77.91
2022-07-27T05:39:27.267Z,77.62
2022-07-27T05:40:30.570Z,77.37
2022-07-27T05:41:33.617Z,77.46
2022-07-27T05:42:35.680Z,77.70
2022-07-27T05:43:38.681Z,77.60
2022-07-27T05:44:40.827Z,77.28
2022-07-27T05:45:43.938Z,77.87
2022-07-27T05:46:46.108Z,77.77
2022-07-27T05:47:49.214Z,77.51
2022-07-27T05:48:55.509Z,77.30
2022-07-27T05:49:57.670Z,77.55
2022-07-27T05:51:00.725Z,77.42
2022-07-27T05:52:03.215Z,77.10
2022-07-27T05:53:06.416Z,77.38
2022-07-27T05:54:08.628Z,77.10
2022-07-27T05:55:12.126Z,77.17
2022-07-27T05:56:15.166Z,77.27
2022-07-27T05:57:18.286Z,77.08
2022-07-27T05:58:20.352Z,77.17
2022-07-27T05:59:28.136Z,76.84
2022-07-27T06:00:30.232Z,76.77
2022-07-27T06:01:33.494Z,77.40
2022-07-27T06:02:35.565Z,77.22
2022-07-27T06:03:39.290Z,77.70
2022-07-27T06:04:43.033Z,77.73
2022-07-27T06:05:46.077Z,77.99
2022-07-27T06:07:06.893Z,78.41
2022-07-27T06:08:09.339Z,79.24
2022-07-27T06:09:12.671Z,79.22
2022-07-27T06:10:14.951Z,79.58
2022-07-27T06:11:18.080Z,80.26
2022-07-27T06:12:20.470Z,80.60
2022-07-27T06:13:28.275Z,80.36
2022-07-27T06:14:30.764Z,81.16
2022-07-27T06:15:33.961Z,80.99
2022-07-27T06:16:36.062Z,81.09
2022-07-27T06:17:39.294Z,81.29
2022-07-27T06:18:41.346Z,81.28
2022-07-27T06:19:45.882Z,81.67
2022-07-27T06:20:48.982Z,81.25
2022-07-27T06:21:53.800Z,81.19
2022-07-27T06:23:00.127Z,81.45
2022-07-27T06:24:02.301Z,81.34
2022-07-27T06:25:06.133Z,81.37
2022-07-27T06:26:09.362Z,81.08
2022-07-27T06:27:12.424Z,81.29
2022-07-27T06:28:15.545Z,81.06
2022-07-27T06:29:17.973Z,81.18
2022-07-27T06:30:23.052Z,81.22
2022-07-27T06:31:25.963Z,80.78
2022-07-27T06:32:30.546Z,80.38
2022-07-27T06:33:32.873Z,80.04
2022-07-27T06:34:40.719Z,79.92
2022-07-27T06:35:46.876Z,79.27
2022-07-27T06:36:50.186Z,79.26
2022-07-27T06:37:52.982Z,79.40
2022-07-27T06:38:56.242Z,78.95
2022-07-27T06:39:59.214Z,79.01
2022-07-27T06:41:03.124Z,78.47
2022-07-27T06:42:05.173Z,78.75
2022-07-27T06:43:08.244Z,78.88
2022-07-27T06:44:10.282Z,78.59
2022-07-27T06:45:13.591Z,78.34
2022-07-27T06:46:16.835Z,78.41
2022-07-27T06:47:18.921Z,78.39
2022-07-27T06:48:22.385Z,77.75
2022-07-27T06:49:24.532Z,77.65
2022-07-27T06:50:27.914Z,77.46
2022-07-27T06:51:32.734Z,77.29
2022-07-27T06:52:35.299Z,76.53
2022-07-27T06:53:38.653Z,76.79
2022-07-27T06:54:41.728Z,76.43
2022-07-27T06:55:43.756Z,76.29
2022-07-27T06:56:46.761Z,76.12
2022-07-27T06:57:48.979Z,75.83
2022-07-27T06:58:52.826Z,75.63
2022-07-27T06:59:55.002Z,75.49
2022-07-27T07:00:59.744Z,74.93
2022-07-27T07:02:01.897Z,74.70
2022-07-27T07:03:07.066Z,74.08
2022-07-27T07:04:09.209Z,74.36
2022-07-27T07:05:12.317Z,74.18
2022-07-27T07:06:15.835Z,74.39
2022-07-27T07:07:19.256Z,74.20
2022-07-27T07:08:22.834Z,73.86
2022-07-27T07:09:24.862Z,73.85
2022-07-27T07:10:28.758Z,73.48
2022-07-27T07:11:30.841Z,73.43
2022-07-27T07:12:33.922Z,73.67
2022-07-27T07:13:40.097Z,73.59
2022-07-27T07:14:45.373Z,73.21
2022-07-27T07:15:47.600Z,73.26
2022-07-27T07:16:51.069Z,73.22
2022-07-27T07:17:54.389Z,72.74
2022-07-27T07:18:57.840Z,73.28
2022-07-27T07:20:01.124Z,72.91
2022-07-27T07:21:04.191Z,72.99
2022-07-27T07:22:06.274Z,73.18
2022-07-27T07:23:11.030Z,72.86
2022-07-27T07:24:14.802Z,72.58
2022-07-27T07:25:16.988Z,72.52
2022-07-27T07:26:20.072Z,72.55
2022-07-27T07:27:23.579Z,72.61
2022-07-27T07:28:26.687Z,72.59
2022-07-27T07:29:28.788Z,71.90
2022-07-27T07:30:32.462Z,72.25
2022-07-27T07:31:34.748Z,71.52
2022-07-27T07:32:37.741Z,71.58
2022-07-27T07:33:40.779Z,71.46
2022-07-27T07:34:43.222Z,70.98
2022-07-27T07:36:14.232Z,71.08
2022-07-27T07:37:09.871Z,71.33
2022-07-27T07:38:14.307Z,71.29
2022-07-27T07:39:18.207Z,70.93
2022-07-27T07:41:44.027Z,70.18
2022-07-27T07:42:50.814Z,69.94
2022-07-27T07:43:53.821Z,70.12
2022-07-27T07:44:56.045Z,70.29
2022-07-27T07:45:59.092Z,70.17
2022-07-27T07:47:01.243Z,69.96
2022-07-27T07:48:04.816Z,69.64
2022-07-27T07:49:06.988Z,69.56
2022-07-27T07:50:11.724Z,69.21
2022-07-27T07:51:14.887Z,68.30
2022-07-27T07:52:17.025Z,67.81
2022-07-27T07:53:22.688Z,67.51
2022-07-27T07:54:24.746Z,67.35
2022-07-27T07:55:30.118Z,66.61
2022-07-27T07:56:33.980Z,65.84
2022-07-27T07:57:36.489Z,65.86
2022-07-27T07:58:39.657Z,65.84
2022-07-27T07:59:41.701Z,65.21
2022-07-27T08:00:45.300Z,64.93
2022-07-27T08:01:48.428Z,64.40
2022-07-27T08:02:52.581Z,64.35
2022-07-27T08:03:55.628Z,63.67
2022-07-27T08:04:57.752Z,63.52
2022-07-27T08:06:00.812Z,63.71
2022-07-27T08:07:06.295Z,63.25
2022-07-27T08:08:09.323Z,63.41
2022-07-27T08:09:16.933Z,63.88
2022-07-27T08:10:22.778Z,63.93
2022-07-27T08:11:25.160Z,64.02
2022-07-27T08:12:28.167Z,64.10
2022-07-27T08:13:31.458Z,63.35
2022-07-27T08:14:33.933Z,63.72
2022-07-27T08:15:37.186Z,63.92
2022-07-27T08:16:40.384Z,64.45
2022-07-27T08:17:42.730Z,64.68
2022-07-27T08:18:45.719Z,64.64
2022-07-27T08:19:47.768Z,65.00
2022-07-27T08:20:51.141Z,65.19
2022-07-27T08:21:53.238Z,64.87
2022-07-27T08:22:56.255Z,64.95
2022-07-27T08:23:59.285Z,64.56
2022-07-27T08:25:08.163Z,64.14
2022-07-27T08:26:12.379Z,63.64
2022-07-27T08:27:15.154Z,63.61
2022-07-27T08:28:19.097Z,63.86
2022-07-27T08:29:23.212Z,63.40
2022-07-27T08:30:27.098Z,62.97
2022-07-27T08:31:51.481Z,62.91
2022-07-27T08:32:58.736Z,62.83
2022-07-27T08:34:02.068Z,62.60
2022-07-27T08:35:05.346Z,61.58
2022-07-27T08:36:09.613Z,61.96
2022-07-27T08:37:15.388Z,61.73
2022-07-27T08:38:19.309Z,61.38
2022-07-27T08:40:05.758Z,60.88
2022-07-27T08:40:49.281Z,60.78
2022-07-27T08:41:54.122Z,60.60
2022-07-27T08:42:57.271Z,60.41
2022-07-27T08:44:01.441Z,60.29
2022-07-27T08:45:05.438Z,59.61
2022-07-27T08:46:11.455Z,59.78
2022-07-27T08:47:15.273Z,59.38
2022-07-27T08:48:18.835Z,59.26
2022-07-27T08:49:32.287Z,59.15
2022-07-27T08:50:49.328Z,59.45
2022-07-27T08:51:51.459Z,59.20
2022-07-27T08:53:03.428Z,58.86
2022-07-27T08:54:07.129Z,58.91
2022-07-27T08:55:09.875Z,58.97
2022-07-27T08:56:14.499Z,58.91
2022-07-27T08:57:16.715Z,58.21
2022-07-27T08:58:20.093Z,57.93
2022-07-27T08:59:23.000Z,57.88
2022-07-27T09:00:26.740Z,57.02
2022-07-27T09:01:34.484Z,57.07
2022-07-27T09:02:39.085Z,56.26
2022-07-27T09:03:42.588Z,56.32
2022-07-27T09:04:45.978Z,56.47
2022-07-27T09:05:51.085Z,55.78
2022-07-27T09:06:54.592Z,55.94
2022-07-27T09:08:10.960Z,55.68
2022-07-27T09:09:16.759Z,55.34
2022-07-27T09:10:33.665Z,55.39
2022-07-27T09:11:38.371Z,55.52
2022-07-27T09:12:40.762Z,55.67
2022-07-27T09:13:44.399Z,55.57
2022-07-27T09:14:52.687Z,55.58
2022-07-27T09:16:18.447Z,55.56
2022-07-27T09:18:49.677Z,53.28
2022-07-27T09:19:56.877Z,53.70
2022-07-27T09:21:14.680Z,53.62
2022-07-27T09:22:44.792Z,53.42
2022-07-27T09:23:50.420Z,53.26
2022-07-27T09:25:02.498Z,52.68
2022-07-27T09:26:30.002Z,52.68
2022-07-27T09:27:35.929Z,52.30
2022-07-27T09:28:38.156Z,52.29
2022-07-27T09:29:41.512Z,52.20
2022-07-27T09:30:44.256Z,51.32
2022-07-27T09:31:52.901Z,51.82
2022-07-27T09:32:58.955Z,51.80
2022-07-27T09:34:03.972Z,50.96
2022-07-27T09:35:18.100Z,50.37
2022-07-27T09:36:23.830Z,50.03
2022-07-27T09:37:28.584Z,50.06
2022-07-27T09:38:31.371Z,49.64
2022-07-27T09:39:34.925Z,49.67
2022-07-27T09:40:37.179Z,49.62
2022-07-27T09:41:43.380Z,50.04
2022-07-27T09:43:14.567Z,50.07
2022-07-27T09:44:32.607Z,50.01
2022-07-27T09:45:39.610Z,49.75
2022-07-27T09:46:48.464Z,50.08
2022-07-27T09:47:53.347Z,50.44
2022-07-27T09:48:56.758Z,50.33
2022-07-27T09:50:17.910Z,50.28
2022-07-27T09:52:48.979Z,51.13
2022-07-27T09:53:53.295Z,51.53
2022-07-27T09:55:04.151Z,52.25
2022-07-27T09:56:11.923Z,52.88
2022-07-27T09:57:15.723Z,54.19
2022-07-27T09:58:21.417Z,54.05
2022-07-27T09:59:28.086Z,55.08
2022-07-27T10:00:30.792Z,55.03
2022-07-27T10:01:47.706Z,55.71
2022-07-27T10:02:56.556Z,55.90
2022-07-27T10:04:01.627Z,56.48
2022-07-27T10:05:04.422Z,56.79
2022-07-27T10:06:09.167Z,56.68
2022-07-27T10:07:14.390Z,56.79
2022-07-27T10:08:16.755Z,56.98
2022-07-27T10:09:20.577Z,56.94
2022-07-27T10:10:24.676Z,56.95
2022-07-27T10:11:30.066Z,56.70
2022-07-27T10:12:34.803Z,56.91
2022-07-27T10:13:43.846Z,57.15
2022-07-27T10:14:46.480Z,57.21
2022-07-27T10:15:50.011Z,57.06
2022-07-27T10:16:54.910Z,57.02
2022-07-27T10:18:07.362Z,57.08
2022-07-27T10:19:15.520Z,56.62
2022-07-27T10:20:20.263Z,56.61
2022-07-27T10:21:24.801Z,55.84
2022-07-27T10:22:49.883Z,55.21
2022-07-27T10:23:58.783Z,55.98
2022-07-27T10:25:01.343Z,55.72
2022-07-27T10:26:20.481Z,55.29
2022-07-27T10:27:28.448Z,55.32
2022-07-27T10:28:33.223Z,55.11
2022-07-27T10:29:40.472Z,54.43
2022-07-27T10:30:46.237Z,53.47
2022-07-27T10:32:00.563Z,52.22
2022-07-27T10:33:13.678Z,51.76
2022-07-27T10:34:34.534Z,50.50
2022-07-27T10:35:36.986Z,50.83
2022-07-27T10:36:54.663Z,49.97
2022-07-27T10:38:15.302Z,50.01
2022-07-27T10:39:31.117Z,49.70
2022-07-27T10:40:37.446Z,50.36
2022-07-27T10:41:45.147Z,50.44
2022-07-27T10:42:54.279Z,49.78
2022-07-27T10:44:30.665Z,48.89
2022-07-27T10:46:01.958Z,48.13
2022-07-27T10:47:05.871Z,48.77
2022-07-27T10:48:09.855Z,48.63
2022-07-27T10:49:23.310Z,48.71
2022-07-27T10:50:31.349Z,48.44
2022-07-27T10:51:36.433Z,48.32
2022-07-27T10:52:43.844Z,47.77
2022-07-27T10:55:44.855Z,48.01
2022-07-27T10:56:51.473Z,47.86
2022-07-27T10:57:54.962Z,48.52
2022-07-27T10:58:58.709Z,48.73
2022-07-27T11:00:10.228Z,48.47
2022-07-27T11:01:20.262Z,47.90
2022-07-27T11:02:40.287Z,46.98
2022-07-27T11:03:55.321Z,47.20
2022-07-27T11:04:58.850Z,47.18
2022-07-27T11:06:22.007Z,47.20
2022-07-27T11:07:34.389Z,47.39
2022-07-27T11:08:47.328Z,47.90
2022-07-27T11:10:03.468Z,48.06
2022-07-27T11:11:09.076Z,48.71
2022-07-27T11:12:13.960Z,49.31
2022-07-27T11:13:18.125Z,49.59
2022-07-27T11:14:30.382Z,50.49
2022-07-27T11:15:34.336Z,51.13
2022-07-27T11:16:54.517Z,52.08
2022-07-27T11:18:03.378Z,51.70
2022-07-27T11:19:08.607Z,52.08
2022-07-27T11:20:13.862Z,52.74
2022-07-27T11:21:26.177Z,52.96
2022-07-27T11:22:53.647Z,53.42
2022-07-27T11:23:58.376Z,53.75
2022-07-27T11:25:02.322Z,54.50
2022-07-27T11:26:06.580Z,54.71
2022-07-27T11:27:16.017Z,54.50
2022-07-27T11:28:30.117Z,54.49
2022-07-27T11:29:40.024Z,54.24
2022-07-27T11:30:46.124Z,54.02
2022-07-27T11:31:57.540Z,53.70
2022-07-27T11:33:07.218Z,53.67
2022-07-27T11:34:14.372Z,52.48
2022-07-27T11:35:20.149Z,52.08
2022-07-27T11:36:26.563Z,52.06
2022-07-27T11:37:30.784Z,51.88
2022-07-27T11:38:45.789Z,51.94
2022-07-27T11:40:03.995Z,52.27
2022-07-27T11:42:04.720Z,51.54
2022-07-27T11:42:51.991Z,51.11
2022-07-27T11:44:02.247Z,50.42
2022-07-27T11:45:05.180Z,50.31
2022-07-27T11:46:16.458Z,50.43
2022-07-27T11:47:24.274Z,50.42
2022-07-27T11:48:38.967Z,50.50
2022-07-27T11:49:50.100Z,50.68
2022-07-27T11:50:58.234Z,50.92
2022-07-27T11:52:02.975Z,50.83
2022-07-27T11:53:06.610Z,51.22
2022-07-27T11:54:12.049Z,51.61
2022-07-27T11:55:15.464Z,51.76
2022-07-27T11:56:24.912Z,52.13
2022-07-27T11:57:33.120Z,52.07
2022-07-27T11:59:01.594Z,52.30
2022-07-27T12:00:06.068Z,52.49
2022-07-27T12:01:27.408Z,52.77
2022-07-27T12:02:32.349Z,53.15
2022-07-27T12:03:47.182Z,53.08
2022-07-27T12:05:00.516Z,53.60
2022-07-27T12:06:06.727Z,53.65
2022-07-27T12:07:14.088Z,53.77
2022-07-27T12:08:18.885Z,53.80
2022-07-27T12:09:22.324Z,54.16
2022-07-27T12:10:25.718Z,54.04
2022-07-27T12:11:34.328Z,54.20
2022-07-27T12:12:38.916Z,54.28
2022-07-27T12:13:41.035Z,54.40
2022-07-27T12:14:47.089Z,54.28
2022-07-27T12:15:57.495Z,54.48
2022-07-27T12:17:16.379Z,54.67
2022-07-27T12:18:21.989Z,54.89
2022-07-27T12:19:25.675Z,55.10
2022-07-27T12:20:34.988Z,55.27
2022-07-27T12:21:37.176Z,55.50
2022-07-27T12:22:44.464Z,55.89
2022-07-27T12:23:52.561Z,55.82
2022-07-27T12:24:59.175Z,56.27
2022-07-27T12:26:20.602Z,56.29
2022-07-27T12:27:23.722Z,56.24
2022-07-27T12:28:28.076Z,56.29
2022-07-27T12:29:30.803Z,55.86
2022-07-27T12:30:35.640Z,55.74
2022-07-27T12:31:47.551Z,55.57
2022-07-27T12:32:55.335Z,55.54
2022-07-27T12:34:06.198Z,55.63
2022-07-27T12:35:26.995Z,54.77
2022-07-27T12:36:31.370Z,54.80
2022-07-27T12:37:35.271Z,54.94
2022-07-27T12:38:39.616Z,54.55
2022-07-27T12:39:45.848Z,53.81
2022-07-27T12:40:55.463Z,54.02
2022-07-27T12:42:05.140Z,54.17
2022-07-27T12:43:10.066Z,54.09
2022-07-27T12:44:15.724Z,53.78
2022-07-27T12:45:22.079Z,53.70
2022-07-27T12:46:25.504Z,53.48
2022-07-27T12:47:55.283Z,53.02
2022-07-27T12:48:59.744Z,52.80
2022-07-27T12:50:08.539Z,53.73
2022-07-27T12:51:12.416Z,53.21
2022-07-27T12:52:15.903Z,52.58
2022-07-27T12:53:20.756Z,52.73
2022-07-27T12:54:23.258Z,52.67
2022-07-27T12:55:28.900Z,51.61
2022-07-27T12:56:32.978Z,51.71
2022-07-27T12:57:54.443Z,51.32
2022-07-27T12:59:01.638Z,51.30
2022-07-27T13:00:06.315Z,51.13
2022-07-27T13:01:09.560Z,50.92
2022-07-27T13:02:12.084Z,50.72
2022-07-27T13:03:16.323Z,50.78
2022-07-27T13:04:19.929Z,50.61
2022-07-27T13:05:23.024Z,49.92
2022-07-27T13:06:25.418Z,49.65
2022-07-27T13:07:28.489Z,49.40
2022-07-27T13:08:32.777Z,49.26
2022-07-27T13:10:02.326Z,49.19
2022-07-27T13:11:00.930Z,49.31
2022-07-27T13:12:03.441Z,48.98
2022-07-27T13:13:07.382Z,49.11
2022-07-27T13:14:09.458Z,49.16
2022-07-27T13:15:13.789Z,49.05
2022-07-27T13:16:16.901Z,49.13
2022-07-27T13:17:19.196Z,49.12
2022-07-27T13:18:23.978Z,49.11
2022-07-27T13:19:27.689Z,49.53
2022-07-27T13:20:31.017Z,49.66
2022-07-27T13:21:33.644Z,49.72
2022-07-27T13:22:37.244Z,49.75
2022-07-27T13:23:40.384Z,50.03
2022-07-27T13:24:42.777Z,50.07
2022-07-27T13:25:46.183Z,50.22
2022-07-27T13:26:49.329Z,50.27
2022-07-27T13:27:52.475Z,50.54
2022-07-27T13:28:55.568Z,50.60
2022-07-27T13:29:59.895Z,50.54
2022-07-27T13:31:02.950Z,50.58
2022-07-27T13:32:07.101Z,50.62
2022-07-27T13:33:09.307Z,50.77
2022-07-27T13:34:13.348Z,50.82
2022-07-27T13:35:17.963Z,50.79
2022-07-27T13:36:20.189Z,51.14
2022-07-27T13:37:23.190Z,51.41
2022-07-27T13:38:28.526Z,52.02
2022-07-27T13:39:31.692Z,52.42
2022-07-27T13:40:37.896Z,53.18
2022-07-27T13:41:40.131Z,52.88
2022-07-27T13:42:43.204Z,52.95
2022-07-27T13:43:45.243Z,53.03
2022-07-27T13:45:07.390Z,52.98
2022-07-27T13:46:12.465Z,52.85
2022-07-27T13:47:15.846Z,52.72
2022-07-27T13:48:19.259Z,52.31
2022-07-27T13:49:22.414Z,52.45
2022-07-27T13:50:28.181Z,52.04
2022-07-27T13:51:30.271Z,52.31
2022-07-27T13:52:33.378Z,52.44
2022-07-27T13:53:35.412Z,52.41
2022-07-27T13:54:38.462Z,53.12
2022-07-27T13:55:41.567Z,52.88
2022-07-27T13:56:45.345Z,52.45
2022-07-27T13:57:48.489Z,52.32
2022-07-27T13:58:50.530Z,51.61
2022-07-27T13:59:54.079Z,51.23
2022-07-27T14:00:57.300Z,50.43
2022-07-27T14:02:00.912Z,49.08
2022-07-27T14:03:03.706Z,49.25
2022-07-27T14:04:10.234Z,49.28